Time;durP1;ratioP1;P1;durP2;ratioP2;P2;SDS_P1;SDS_P2;PMS_P1;PMS_P2;Temp;Humidity;BMP_temperature;BMP_pressure;BME280_temperature;BME280_humidity;BME280_pressure;Samples;Min_cycle;Max_cycle;Signal;HPM_P1;HPM_P2
2022/01/04 00:01:31;;;;;;;36.22;7.57;;;8.20;99.90;;;;;;5025254;28;20049;-70
2022/01/04 00:03:57;;;;;;;30.40;7.63;;;8.20;99.90;;;;;;4994720;28;270326;-69
2022/01/04 00:06:23;;;;;;;32.30;7.45;;;8.20;99.90;;;;;;5013556;28;20045;-71
2022/01/04 00:08:49;;;;;;;35.78;7.93;;;8.20;99.90;;;;;;5009346;28;265220;-70
2022/01/04 00:11:18;;;;;;;29.10;7.90;;;8.20;99.90;;;;;;5025600;28;20041;-71
2022/01/04 00:13:45;;;;;;;29.23;7.90;;;8.20;99.90;;;;;;4994580;28;112878;-70
2022/01/04 00:16:12;;;;;;;34.47;8.07;;;8.20;99.90;;;;;;5007702;28;20056;-69
2022/01/04 00:18:39;;;;;;;31.90;8.30;;;8.30;99.90;;;;;;5003612;28;271916;-70
2022/01/04 00:21:06;;;;;;;28.50;8.15;;;8.30;99.90;;;;;;5026245;28;20037;-71
2022/01/04 00:23:33;;;;;;;34.42;8.75;;;8.30;99.90;;;;;;5005038;28;243350;-70
2022/01/04 00:25:59;;;;;;;38.92;8.68;;;8.30;99.90;;;;;;5026506;28;20057;-70
2022/01/04 00:28:27;;;;;;;31.20;8.27;;;8.30;99.90;;;;;;5001465;28;280479;-70
2022/01/04 00:30:53;;;;;;;30.08;8.15;;;8.30;99.90;;;;;;5027999;28;20526;-70
2022/01/04 00:33:19;;;;;;;29.90;8.13;;;8.30;99.90;;;;;;5007838;28;259591;-70
2022/01/04 00:35:46;;;;;;;29.75;8.70;;;8.30;99.90;;;;;;5015475;28;20137;-71
2022/01/04 00:38:12;;;;;;;34.20;8.70;;;8.30;99.90;;;;;;5008464;28;278048;-70
2022/01/04 00:40:38;;;;;;;29.50;8.27;;;8.30;99.90;;;;;;5026771;28;21248;-71
2022/01/04 00:43:05;;;;;;;32.25;8.60;;;8.30;99.90;;;;;;5004644;28;270639;-70
2022/01/04 00:45:36;;;;;;;30.02;8.32;;;8.30;99.90;;;;;;5025726;28;20074;-71
2022/01/04 00:50:32;;;;;;;29.00;8.68;;;8.30;99.90;;;;;;5028708;28;20060;-70
2022/01/04 00:52:59;;;;;;;28.45;8.43;;;8.30;99.90;;;;;;4997027;28;269158;-70
2022/01/04 00:55:26;;;;;;;30.13;8.68;;;8.20;99.90;;;;;;5011528;28;20421;-71
2022/01/04 00:57:53;;;;;;;31.80;7.50;;;8.30;99.90;;;;;;5006235;28;275432;-70
2022/01/04 01:00:20;;;;;;;27.60;7.55;;;8.20;99.90;;;;;;5024486;28;20044;-70
2022/01/04 01:02:47;;;;;;;34.38;8.63;;;8.20;99.90;;;;;;4996416;28;264052;-71
2022/01/04 01:05:14;;;;;;;32.40;8.40;;;8.30;99.90;;;;;;5020705;28;20041;-71
2022/01/04 01:07:41;;;;;;;29.92;7.47;;;8.20;99.90;;;;;;4995044;28;276208;-71
2022/01/04 01:12:45;;;;;;;33.53;8.02;;;8.20;99.90;;;;;;4987975;28;252708;-71
2022/01/04 01:15:11;;;;;;;37.72;7.82;;;8.30;99.90;;;;;;5014968;28;20049;-70
2022/01/04 01:17:37;;;;;;;36.67;7.43;;;8.30;99.90;;;;;;4993141;28;86257;-70
2022/01/04 01:20:07;;;;;;;40.05;7.30;;;8.30;99.90;;;;;;5021802;28;20415;-69
2022/01/04 01:22:33;;;;;;;39.45;8.60;;;8.30;99.90;;;;;;4991067;28;262364;-70
2022/01/04 01:24:59;;;;;;;28.27;7.55;;;8.30;99.90;;;;;;5017087;28;20053;-69
2022/01/04 01:27:26;;;;;;;30.25;7.15;;;8.30;99.90;;;;;;4987677;28;276641;-70
2022/01/04 01:29:52;;;;;;;34.13;7.95;;;8.30;99.90;;;;;;5009569;28;20049;-70
2022/01/04 01:32:18;;;;;;;33.43;8.33;;;8.30;99.90;;;;;;5022345;28;250908;-70
2022/01/04 01:34:44;;;;;;;35.70;7.78;;;8.30;99.90;;;;;;5016542;28;20049;-70
2022/01/04 01:37:10;;;;;;;30.60;7.70;;;8.30;99.90;;;;;;4996536;28;263922;-70
2022/01/04 01:39:37;;;;;;;30.13;7.70;;;8.30;99.90;;;;;;5021630;28;20045;-70
2022/01/04 01:42:04;;;;;;;33.45;7.90;;;8.30;99.90;;;;;;5015346;28;254057;-69
2022/01/04 01:44:34;;;;;;;29.40;7.65;;;8.30;99.90;;;;;;5032387;28;20056;-71
2022/01/04 01:47:00;;;;;;;34.95;8.27;;;8.20;99.90;;;;;;5021923;28;20053;-70
2022/01/04 01:49:26;;;;;;;37.10;8.50;;;8.20;99.90;;;;;;4995983;28;150615;-70
2022/01/04 01:51:52;;;;;;;28.98;7.95;;;8.20;99.90;;;;;;5014216;28;20064;-71
2022/01/04 01:54:19;;;;;;;33.53;8.07;;;8.20;99.90;;;;;;5001752;28;265593;-70
2022/01/04 01:56:45;;;;;;;36.25;9.13;;;8.20;99.90;;;;;;5005625;28;20050;-69
2022/01/04 01:59:15;;;;;;;34.60;7.43;;;8.20;99.90;;;;;;5000772;28;270090;-70
2022/01/04 02:01:41;;;;;;;35.88;7.30;;;8.20;99.90;;;;;;5025567;28;20049;-70
2022/01/04 02:04:08;;;;;;;32.22;8.07;;;8.20;99.90;;;;;;4973410;28;241392;-70
2022/01/04 02:06:34;;;;;;;30.20;8.25;;;8.20;99.90;;;;;;5025144;28;20382;-71
2022/01/04 02:09:01;;;;;;;31.42;8.48;;;8.20;99.90;;;;;;5001126;28;266230;-70
2022/01/04 02:11:29;;;;;;;34.30;8.77;;;8.10;99.90;;;;;;5004043;28;20184;-70
2022/01/04 02:13:56;;;;;;;31.95;8.90;;;8.20;99.90;;;;;;5009566;28;273077;-70
2022/01/04 02:16:24;;;;;;;30.05;9.13;;;8.20;99.90;;;;;;5008439;28;20053;-70
2022/01/04 02:18:50;;;;;;;34.50;10.15;;;8.20;99.90;;;;;;5005655;28;256402;-70
2022/01/04 02:21:17;;;;;;;33.03;9.77;;;8.20;99.90;;;;;;5024208;28;20056;-70
2022/01/04 02:23:43;;;;;;;31.98;9.07;;;8.20;99.90;;;;;;4997714;28;173007;-70
2022/01/04 02:26:09;;;;;;;34.80;9.32;;;8.20;99.90;;;;;;5027622;28;20501;-70
2022/01/04 02:28:35;;;;;;;31.70;9.55;;;8.20;99.90;;;;;;5004927;28;268231;-71
2022/01/04 02:31:01;;;;;;;29.23;9.93;;;8.20;99.90;;;;;;5012997;28;20045;-70
2022/01/04 02:33:27;;;;;;;28.73;9.50;;;8.20;99.90;;;;;;4984284;28;171752;-70
2022/01/04 02:35:54;;;;;;;32.38;9.85;;;8.20;99.90;;;;;;5027421;28;20530;-70
2022/01/04 02:38:20;;;;;;;30.77;9.70;;;8.20;99.90;;;;;;5008687;28;267948;-70
2022/01/04 02:40:46;;;;;;;33.75;9.50;;;8.20;99.90;;;;;;5005640;28;20046;-70
2022/01/04 02:43:12;;;;;;;46.25;10.93;;;8.20;99.90;;;;;;5002555;28;254794;-70
2022/01/04 02:45:38;;;;;;;40.25;10.82;;;8.20;99.90;;;;;;5027871;28;20061;-70
2022/01/04 02:48:04;;;;;;;39.00;10.60;;;8.10;99.90;;;;;;5008252;28;256338;-70
2022/01/04 02:50:30;;;;;;;37.03;10.90;;;8.10;99.90;;;;;;5008803;28;20417;-71
2022/01/04 02:52:56;;;;;;;38.63;10.77;;;8.10;99.90;;;;;;5007337;28;259843;-70
2022/01/04 02:55:23;;;;;;;39.33;11.48;;;8.10;99.90;;;;;;5010697;28;20053;-70
2022/01/04 02:57:49;;;;;;;32.08;9.65;;;8.10;99.90;;;;;;5001411;28;20053;-71
2022/01/04 03:00:17;;;;;;;32.13;10.35;;;8.10;99.90;;;;;;5030762;28;20402;-69
2022/01/04 03:02:43;;;;;;;41.20;11.10;;;8.10;99.90;;;;;;4973821;28;200483;-70
2022/01/04 03:05:10;;;;;;;38.70;10.48;;;8.10;99.90;;;;;;5026565;28;20053;-72
2022/01/04 03:07:38;;;;;;;38.67;10.85;;;8.10;99.90;;;;;;5008271;28;265566;-71
2022/01/04 03:10:05;;;;;;;33.53;10.60;;;8.10;99.90;;;;;;5010071;28;20301;-70
2022/01/04 03:12:32;;;;;;;32.50;11.25;;;8.10;99.90;;;;;;5005572;28;260891;-70
2022/01/04 03:14:58;;;;;;;41.65;11.02;;;8.10;99.90;;;;;;5023709;28;20054;-70
2022/01/04 03:17:24;;;;;;;31.10;10.93;;;8.20;99.90;;;;;;5008745;28;257930;-70
2022/01/04 03:19:50;;;;;;;36.53;11.68;;;8.20;99.90;;;;;;5023976;28;20054;-70
2022/01/04 03:22:16;;;;;;;37.03;11.30;;;8.20;99.90;;;;;;5011640;28;270555;-70
2022/01/04 03:24:42;;;;;;;43.03;11.63;;;8.20;99.90;;;;;;5022967;28;20057;-70
2022/01/04 03:27:08;;;;;;;29.30;11.32;;;8.20;99.90;;;;;;5006552;28;274678;-70
2022/01/04 03:29:35;;;;;;;44.97;12.48;;;8.20;99.90;;;;;;5022857;28;20045;-70
2022/01/04 03:32:01;;;;;;;40.63;13.38;;;8.20;99.90;;;;;;5028810;28;20045;-71
2022/01/04 03:34:27;;;;;;;40.83;12.95;;;8.20;99.90;;;;;;5020020;28;232906;-70
2022/01/04 03:36:53;;;;;;;35.25;12.82;;;8.20;99.90;;;;;;5028283;28;20063;-70
2022/01/04 03:39:19;;;;;;;40.13;13.82;;;8.20;99.90;;;;;;4990820;28;215960;-70
2022/01/04 03:41:46;;;;;;;35.08;13.05;;;8.20;99.90;;;;;;5030708;28;20062;-69
2022/01/04 03:44:18;;;;;;;45.25;13.70;;;8.20;99.90;;;;;;5006849;28;261227;-71
2022/01/04 03:46:49;;;;;;;38.95;13.57;;;8.20;99.90;;;;;;5025901;28;20529;-70
2022/01/04 03:49:16;;;;;;;37.60;13.68;;;8.20;99.90;;;;;;5008717;28;257959;-71
2022/01/04 03:51:42;;;;;;;35.03;13.50;;;8.20;99.90;;;;;;5021380;28;20479;-70
2022/01/04 03:54:08;;;;;;;38.83;13.43;;;8.20;99.90;;;;;;5008835;28;264340;-70
2022/01/04 03:56:35;;;;;;;37.70;13.98;;;8.20;99.90;;;;;;5014182;28;20057;-70
2022/01/04 03:59:01;;;;;;;42.00;14.35;;;8.20;99.90;;;;;;5010064;28;252360;-71
2022/01/04 04:01:27;;;;;;;37.60;14.35;;;8.20;99.90;;;;;;4999612;28;20153;-70
2022/01/04 04:03:54;;;;;;;40.42;14.02;;;8.20;99.90;;;;;;4988894;28;246199;-70
2022/01/04 04:06:20;;;;;;;41.95;14.32;;;8.20;99.90;;;;;;5025488;28;20422;-71
2022/01/04 04:08:46;;;;;;;43.42;14.35;;;8.20;99.90;;;;;;4993041;28;145170;-72
2022/01/04 04:11:12;;;;;;;38.45;13.73;;;8.20;99.90;;;;;;5007856;28;20045;-71
2022/01/04 04:13:39;;;;;;;38.72;14.13;;;8.20;99.90;;;;;;5002609;28;251945;-70
2022/01/04 04:16:05;;;;;;;43.25;15.07;;;8.20;99.90;;;;;;5022444;28;20042;-70
2022/01/04 04:18:32;;;;;;;40.25;13.82;;;8.20;99.90;;;;;;4999868;28;270151;-71
2022/01/04 04:20:58;;;;;;;39.47;13.55;;;8.20;99.90;;;;;;5024592;28;20049;-70
2022/01/04 04:23:24;;;;;;;39.33;14.73;;;8.20;99.90;;;;;;4992041;28;128132;-70
2022/01/04 04:25:51;;;;;;;38.53;14.90;;;8.30;99.90;;;;;;5023458;28;20049;-70
2022/01/04 04:28:17;;;;;;;36.97;14.48;;;8.30;99.90;;;;;;5008510;28;50946;-70
2022/01/04 04:30:43;;;;;;;37.20;15.95;;;8.30;99.90;;;;;;5020848;28;20049;-70
2022/01/04 04:33:09;;;;;;;40.45;15.63;;;8.30;99.90;;;;;;5012454;28;260939;-70
2022/01/04 04:35:35;;;;;;;45.25;15.45;;;8.30;99.90;;;;;;5022093;28;20091;-70
2022/01/04 04:38:05;;;;;;;40.47;15.93;;;8.30;99.90;;;;;;5007617;28;268911;-70
2022/01/04 04:40:32;;;;;;;36.10;14.32;;;8.30;99.90;;;;;;5007429;28;20056;-70
2022/01/04 04:42:58;;;;;;;36.10;14.13;;;8.30;99.90;;;;;;5002043;28;149941;-71
2022/01/04 04:45:24;;;;;;;41.92;14.80;;;8.30;99.90;;;;;;5025036;28;20060;-70
2022/01/04 04:47:50;;;;;;;32.50;14.13;;;8.30;99.90;;;;;;4998479;28;91154;-70
2022/01/04 04:50:17;;;;;;;37.80;13.93;;;8.30;99.90;;;;;;5033404;28;20053;-70
2022/01/04 04:52:43;;;;;;;40.65;13.80;;;8.30;99.90;;;;;;5002082;28;20045;-70
2022/01/04 04:55:10;;;;;;;41.30;14.90;;;8.30;99.90;;;;;;5024308;28;20057;-71
2022/01/04 04:57:38;;;;;;;35.08;15.95;;;8.30;99.90;;;;;;5004482;28;271229;-71
2022/01/04 05:00:07;;;;;;;33.67;14.52;;;8.30;99.90;;;;;;5023366;28;20050;-70
2022/01/04 05:02:33;;;;;;;38.15;15.43;;;8.30;99.90;;;;;;4985409;28;153553;-71
2022/01/04 05:04:59;;;;;;;36.10;14.25;;;8.30;99.90;;;;;;5034410;28;20505;-71
2022/01/04 05:07:26;;;;;;;34.72;14.50;;;8.20;99.90;;;;;;5010945;28;254384;-70
2022/01/04 05:09:52;;;;;;;38.17;14.52;;;8.20;99.90;;;;;;5023529;28;20065;-69
2022/01/04 05:12:18;;;;;;;36.17;14.82;;;8.20;99.90;;;;;;5001573;28;250982;-70
2022/01/04 05:14:46;;;;;;;37.35;14.48;;;8.20;99.90;;;;;;5008137;28;20129;-70
2022/01/04 05:17:13;;;;;;;43.40;15.25;;;8.10;99.90;;;;;;5006683;28;267485;-70
2022/01/04 05:19:39;;;;;;;37.72;15.13;;;8.10;99.90;;;;;;5021439;28;20490;-70
2022/01/04 05:22:06;;;;;;;39.13;15.50;;;8.10;99.90;;;;;;4988264;28;261655;-69
2022/01/04 05:24:32;;;;;;;44.92;15.23;;;8.10;99.90;;;;;;5021371;28;20045;-70
2022/01/04 05:26:58;;;;;;;35.28;14.52;;;8.10;99.90;;;;;;5024698;28;20048;-70
2022/01/04 05:29:24;;;;;;;39.50;15.23;;;8.10;99.90;;;;;;5005981;28;249090;-70
2022/01/04 05:31:50;;;;;;;40.40;15.85;;;8.10;99.90;;;;;;5019343;28;20041;-71
2022/01/04 05:34:16;;;;;;;37.97;15.32;;;8.10;99.90;;;;;;5006925;28;250965;-70
2022/01/04 05:36:43;;;;;;;41.67;15.90;;;8.10;99.90;;;;;;5024836;28;20057;-70
2022/01/04 05:39:09;;;;;;;47.90;16.30;;;8.20;99.90;;;;;;5001427;28;204823;-71
2022/01/04 05:41:35;;;;;;;45.08;15.75;;;8.20;99.90;;;;;;5018748;28;20057;-70
2022/01/04 05:44:02;;;;;;;36.17;14.93;;;8.20;99.90;;;;;;5005413;28;260403;-71
2022/01/04 05:46:28;;;;;;;38.85;16.42;;;8.10;99.90;;;;;;5024849;28;20064;-71
2022/01/04 05:48:54;;;;;;;33.78;15.20;;;8.20;99.90;;;;;;5002134;28;273971;-71
2022/01/04 05:51:20;;;;;;;31.60;14.90;;;8.20;99.90;;;;;;5020700;28;20045;-71
2022/01/04 05:53:46;;;;;;;39.03;15.23;;;8.20;99.90;;;;;;5009668;28;263835;-71
2022/01/04 05:56:12;;;;;;;37.28;16.10;;;8.20;99.90;;;;;;5026481;28;20045;-70
2022/01/04 05:58:38;;;;;;;35.97;15.23;;;8.20;99.90;;;;;;5009108;28;271670;-70
2022/01/04 06:01:04;;;;;;;42.50;15.98;;;8.20;99.90;;;;;;5027319;28;20041;-70
2022/01/04 06:03:30;;;;;;;37.97;15.95;;;8.10;99.90;;;;;;4996381;28;253099;-70
2022/01/04 06:05:57;;;;;;;35.28;16.10;;;8.20;99.90;;;;;;5003755;28;20388;-71
2022/01/04 06:08:23;;;;;;;39.38;16.83;;;8.20;99.90;;;;;;5004052;28;272208;-70
2022/01/04 06:10:54;;;;;;;42.33;16.48;;;8.10;99.90;;;;;;4999137;28;20061;-71
2022/01/04 06:16:05;;;;;;;40.25;16.88;;;8.20;99.90;;;;;;5022612;28;20044;-71
2022/01/04 06:18:31;;;;;;;43.60;15.55;;;8.20;99.90;;;;;;5008945;28;143591;-70
2022/01/04 06:20:58;;;;;;;37.67;15.18;;;8.20;99.90;;;;;;5028698;28;20054;-71
2022/01/04 06:23:24;;;;;;;35.97;15.43;;;8.20;99.90;;;;;;5011507;28;268010;-71
2022/01/04 06:25:52;;;;;;;55.03;17.48;;;8.20;99.90;;;;;;5011360;28;20260;-70
2022/01/04 06:28:20;;;;;;;41.35;15.43;;;8.20;99.90;;;;;;5009559;28;252458;-69
2022/01/04 06:30:48;;;;;;;43.15;16.65;;;8.20;99.90;;;;;;5029142;28;20049;-71
2022/01/04 06:33:19;;;;;;;44.13;16.10;;;8.20;99.90;;;;;;5026703;28;271145;-70
2022/01/04 06:35:47;;;;;;;41.88;16.35;;;8.20;99.90;;;;;;5050294;28;20052;-70
2022/01/04 06:38:13;;;;;;;33.03;14.80;;;8.20;99.90;;;;;;5027743;28;248331;-71
2022/01/04 06:40:39;;;;;;;42.13;16.80;;;8.20;99.90;;;;;;5025798;28;20545;-71
2022/01/04 06:43:05;;;;;;;38.35;14.30;;;8.20;99.90;;;;;;5007957;28;270545;-70
2022/01/04 06:45:32;;;;;;;36.75;13.70;;;8.20;99.90;;;;;;5010233;28;20514;-70
2022/01/04 06:47:58;;;;;;;25.05;11.20;;;8.20;99.90;;;;;;4990195;28;249072;-70
2022/01/04 06:50:24;;;;;;;28.52;11.60;;;8.10;99.90;;;;;;5023389;28;20045;-70
2022/01/04 06:52:51;;;;;;;29.70;11.43;;;8.10;99.90;;;;;;5011690;28;254944;-71
2022/01/04 06:55:17;;;;;;;31.77;11.55;;;8.10;99.90;;;;;;5032151;28;20053;-71
2022/01/04 06:57:43;;;;;;;28.55;11.77;;;8.10;99.90;;;;;;5005797;28;254470;-70
2022/01/04 07:00:10;;;;;;;26.83;11.52;;;8.10;99.90;;;;;;5026631;28;20049;-70
2022/01/04 07:02:36;;;;;;;26.67;11.60;;;8.10;99.90;;;;;;4976916;28;248725;-71
2022/01/04 07:05:03;;;;;;;30.98;12.63;;;8.10;99.90;;;;;;5019567;28;20045;-70
2022/01/04 07:07:29;;;;;;;27.88;12.13;;;8.10;99.90;;;;;;5003325;28;264296;-71
2022/01/04 07:09:55;;;;;;;27.25;12.02;;;8.10;99.90;;;;;;5026139;28;20060;-70
2022/01/04 07:12:21;;;;;;;29.35;12.75;;;8.00;99.90;;;;;;5004376;28;264405;-70
2022/01/04 07:14:47;;;;;;;32.38;13.63;;;8.00;99.90;;;;;;5023268;28;20209;-71
2022/01/04 07:17:14;;;;;;;33.28;12.70;;;8.00;99.90;;;;;;5004284;28;261024;-70
2022/01/04 07:19:40;;;;;;;29.83;13.55;;;8.00;99.90;;;;;;5018975;28;20053;-69
2022/01/04 07:22:06;;;;;;;25.17;12.05;;;7.90;99.90;;;;;;5014992;28;272237;-70
2022/01/04 07:24:32;;;;;;;29.38;13.18;;;7.90;99.90;;;;;;5026474;28;20057;-71
2022/01/04 07:26:58;;;;;;;26.40;13.50;;;7.90;99.90;;;;;;5032792;28;20076;-70
2022/01/04 07:29:24;;;;;;;31.60;14.35;;;8.00;99.90;;;;;;4984955;28;247951;-70
2022/01/04 07:31:50;;;;;;;28.30;13.27;;;8.00;99.90;;;;;;5026217;28;20049;-70
2022/01/04 07:34:17;;;;;;;28.90;13.15;;;8.00;99.90;;;;;;5003199;28;271364;-71
2022/01/04 07:36:43;;;;;;;30.60;13.95;;;8.00;99.90;;;;;;5018818;28;20486;-70
2022/01/04 07:39:09;;;;;;;29.48;15.27;;;8.00;99.90;;;;;;5004758;28;272269;-70
2022/01/04 07:41:35;;;;;;;31.00;15.70;;;8.00;99.90;;;;;;5028725;28;20049;-70
2022/01/04 07:44:01;;;;;;;32.40;15.90;;;8.00;99.90;;;;;;5016389;28;20053;-70
2022/01/04 07:46:28;;;;;;;32.85;15.85;;;8.00;99.90;;;;;;5023455;28;20049;-69
2022/01/04 07:48:54;;;;;;;32.92;15.77;;;8.00;99.90;;;;;;5008803;28;252393;-70
2022/01/04 07:51:20;;;;;;;35.15;15.45;;;8.00;99.90;;;;;;5032345;28;20393;-71
2022/01/04 07:53:47;;;;;;;30.85;15.35;;;8.00;99.90;;;;;;4989727;28;253858;-71
2022/01/04 07:56:13;;;;;;;28.27;14.63;;;8.00;99.90;;;;;;5022992;28;20049;-71
2022/01/04 07:58:39;;;;;;;32.58;15.25;;;8.00;99.90;;;;;;5006276;28;260328;-70
2022/01/04 08:01:05;;;;;;;31.60;14.43;;;8.00;99.90;;;;;;5021096;28;20062;-70
2022/01/04 08:03:31;;;;;;;27.80;14.48;;;8.00;99.90;;;;;;4999877;28;271432;-71
2022/01/04 08:05:57;;;;;;;33.63;14.57;;;8.00;99.90;;;;;;5032264;28;20036;-71
2022/01/04 08:08:24;;;;;;;32.08;14.43;;;8.00;99.90;;;;;;5002431;28;270943;-71
2022/01/04 08:10:51;;;;;;;28.38;14.48;;;8.00;99.90;;;;;;5021533;28;20434;-70
2022/01/04 08:13:17;;;;;;;32.08;15.02;;;8.00;99.90;;;;;;5008189;28;270505;-71
2022/01/04 08:15:43;;;;;;;26.05;13.32;;;8.00;99.90;;;;;;5021989;28;20052;-70
2022/01/04 08:18:10;;;;;;;24.48;12.02;;;8.00;99.90;;;;;;5003704;28;268783;-70
2022/01/04 08:20:36;;;;;;;12.05;4.03;;;8.00;99.90;;;;;;5009677;28;20504;-69
2022/01/04 08:23:02;;;;;;;12.75;3.90;;;7.80;99.90;;;;;;5000114;28;240269;-70
2022/01/04 08:25:28;;;;;;;14.35;4.30;;;7.70;99.90;;;;;;5012587;28;20121;-71
2022/01/04 08:27:54;;;;;;;13.48;3.83;;;7.60;99.90;;;;;;5004550;28;263121;-71
2022/01/04 08:30:20;;;;;;;10.20;2.70;;;7.60;99.90;;;;;;5025748;28;20069;-71
2022/01/04 08:32:47;;;;;;;9.43;2.10;;;7.50;99.90;;;;;;5002775;28;267186;-71
2022/01/04 08:35:14;;;;;;;10.93;2.63;;;7.50;99.90;;;;;;5025268;28;20049;-71
2022/01/04 08:37:40;;;;;;;11.40;2.53;;;7.40;99.90;;;;;;5003769;28;266550;-70
2022/01/04 08:40:07;;;;;;;8.90;2.65;;;7.40;99.90;;;;;;5026145;28;20532;-70
2022/01/04 08:42:35;;;;;;;11.50;3.25;;;7.30;99.90;;;;;;5010167;28;273350;-70
2022/01/04 08:45:02;;;;;;;16.17;3.72;;;7.30;99.90;;;;;;5023182;28;20398;-70
2022/01/04 08:47:28;;;;;;;14.68;4.18;;;7.30;99.90;;;;;;5000314;28;256313;-71
2022/01/04 08:49:54;;;;;;;16.42;4.53;;;7.20;99.90;;;;;;4999257;28;20065;-72
2022/01/04 08:52:20;;;;;;;16.00;4.07;;;7.30;99.90;;;;;;4987770;28;273467;-71
2022/01/04 08:54:47;;;;;;;13.73;4.35;;;7.30;99.90;;;;;;5004730;28;20068;-71
2022/01/04 08:57:13;;;;;;;15.82;4.47;;;7.40;99.90;;;;;;4987031;28;272985;-71
2022/01/04 08:59:39;;;;;;;15.93;4.45;;;7.40;99.90;;;;;;5008707;28;21822;-71
2022/01/04 09:02:06;;;;;;;17.73;4.22;;;7.40;99.90;;;;;;4988837;28;273582;-70
2022/01/04 09:04:32;;;;;;;17.52;4.40;;;7.40;99.90;;;;;;5026109;28;20045;-71
2022/01/04 09:06:59;;;;;;;14.93;4.80;;;7.40;99.90;;;;;;5012155;28;20056;-71
2022/01/04 09:09:25;;;;;;;12.07;3.85;;;7.40;99.90;;;;;;4991571;28;118255;-72
2022/01/04 09:11:52;;;;;;;13.02;3.80;;;7.40;99.90;;;;;;5011679;28;20049;-72
2022/01/04 09:14:24;;;;;;;16.13;3.88;;;7.40;99.90;;;;;;5011505;28;263467;-71
2022/01/04 09:19:36;;;;;;;14.05;3.63;;;7.40;99.90;;;;;;4995920;28;20048;-71
2022/01/04 09:22:04;;;;;;;17.52;3.70;;;7.50;99.90;;;;;;5031238;28;20382;-71
2022/01/04 09:24:31;;;;;;;17.02;3.92;;;7.50;99.90;;;;;;4979168;28;20055;-71
2022/01/04 09:26:57;;;;;;;14.82;3.53;;;7.50;99.90;;;;;;5000975;28;20506;-71
2022/01/04 09:29:23;;;;;;;13.43;3.67;;;7.50;99.90;;;;;;5006497;28;268766;-71
2022/01/04 09:31:53;;;;;;;13.38;3.20;;;7.40;99.90;;;;;;5009687;28;20049;-71
2022/01/04 09:34:20;;;;;;;15.40;3.30;;;7.50;99.90;;;;;;5002317;28;257162;-70
2022/01/04 09:36:46;;;;;;;15.95;3.13;;;7.50;99.90;;;;;;5021630;28;20060;-70
2022/01/04 09:39:18;;;;;;;18.33;3.30;;;7.50;99.90;;;;;;5004718;28;261027;-71
2022/01/04 09:41:45;;;;;;;14.27;2.63;;;7.40;99.90;;;;;;5024131;28;20054;-71
2022/01/04 09:44:11;;;;;;;14.80;2.63;;;7.40;99.90;;;;;;5011838;28;251195;-71
2022/01/04 09:46:39;;;;;;;14.48;2.60;;;7.40;99.90;;;;;;5032005;28;20062;-70
2022/01/04 09:49:05;;;;;;;10.48;1.60;;;7.40;99.90;;;;;;5002480;28;256678;-71
2022/01/04 09:51:32;;;;;;;12.27;1.40;;;7.30;99.90;;;;;;5025518;28;20048;-71
2022/01/04 09:53:59;;;;;;;8.93;1.40;;;7.20;99.90;;;;;;5012386;28;91425;-71
2022/01/04 09:56:25;;;;;;;11.55;1.40;;;7.20;99.90;;;;;;5021964;28;20041;-72
2022/01/04 09:58:51;;;;;;;10.23;1.42;;;7.20;99.90;;;;;;5005872;28;256713;-71
2022/01/04 10:01:23;;;;;;;9.63;1.38;;;7.20;99.90;;;;;;5032586;28;20048;-71
2022/01/04 10:03:49;;;;;;;10.07;1.55;;;7.10;99.90;;;;;;4994956;28;251174;-71
2022/01/04 10:06:16;;;;;;;9.50;1.40;;;7.10;99.90;;;;;;5033038;28;20045;-71
2022/01/04 10:09:08;;;;;;;8.10;1.25;;;7.20;99.90;;;;;;5006296;28;263627;-71
2022/01/04 10:11:44;;;;;;;8.07;1.05;;;7.20;99.90;;;;;;5006672;28;20045;-71
2022/01/04 10:14:27;;;;;;;10.88;1.25;;;7.10;99.90;;;;;;5019015;28;246136;-71
2022/01/04 10:16:56;;;;;;;6.70;1.00;;;7.10;99.90;;;;;;5023458;28;20188;-71
2022/01/04 10:19:39;;;;;;;11.60;1.42;;;7.10;99.90;;;;;;5004477;28;257036;-71
2022/01/04 10:22:35;;;;;;;9.77;1.35;;;7.00;99.90;;;;;;4990499;28;253835;-71
2022/01/04 10:25:01;;;;;;;8.18;1.15;;;7.00;99.90;;;;;;4956180;28;20058;-71
2022/01/04 10:27:41;;;;;;;7.32;0.90;;;7.00;99.90;;;;;;4952365;28;104569;-71
2022/01/04 10:30:15;;;;;;;10.75;1.52;;;7.00;99.90;;;;;;4983337;28;20050;-71
2022/01/04 10:32:48;;;;;;;8.70;1.50;;;7.00;99.90;;;;;;4967766;28;133340;-71
2022/01/04 10:35:35;;;;;;;6.47;1.08;;;6.90;99.90;;;;;;4967916;28;20050;-71
2022/01/04 10:38:09;;;;;;;9.27;1.40;;;6.90;99.90;;;;;;4962906;28;93084;-71
2022/01/04 10:40:36;;;;;;;7.90;1.40;;;6.80;99.90;;;;;;4977111;28;20503;-72
2022/01/04 10:43:08;;;;;;;8.40;1.50;;;6.80;99.90;;;;;;4950583;28;157747;-71
2022/01/04 10:45:35;;;;;;;12.82;1.88;;;6.70;99.90;;;;;;4981677;28;20054;-70
2022/01/04 10:48:13;;;;;;;10.05;1.75;;;6.70;99.90;;;;;;4971770;28;20050;-71
2022/01/04 10:50:40;;;;;;;10.68;2.20;;;6.70;99.90;;;;;;4984209;28;20386;-71
2022/01/04 10:53:33;;;;;;;10.77;1.83;;;6.70;99.90;;;;;;4969620;28;162995;-71
2022/01/04 10:56:03;;;;;;;7.95;1.20;;;6.60;99.90;;;;;;4982143;28;20053;-71
2022/01/04 10:58:41;;;;;;;6.20;0.90;;;6.50;99.90;;;;;;4957672;28;127007;-70
2022/01/04 11:01:17;;;;;;;7.60;1.00;;;6.40;99.90;;;;;;5004372;28;20261;-71
2022/01/04 11:03:43;;;;;;;9.82;1.23;;;6.30;99.90;;;;;;4998358;28;256748;-72
2022/01/04 11:06:18;;;;;;;8.05;1.00;;;6.20;99.90;;;;;;5036414;28;20041;-71
2022/01/04 11:08:45;;;;;;;8.98;0.90;;;6.20;99.90;;;;;;4999070;28;257412;-71
2022/01/04 11:11:11;;;;;;;8.18;1.05;;;6.20;99.90;;;;;;5009393;28;20061;-72
2022/01/04 11:13:37;;;;;;;9.82;0.90;;;6.30;99.90;;;;;;5002935;28;279598;-70
2022/01/04 11:16:06;;;;;;;10.57;1.20;;;6.30;99.90;;;;;;5021825;28;20048;-71
2022/01/04 11:18:33;;;;;;;6.90;0.95;;;6.40;99.90;;;;;;5007645;28;276306;-71
2022/01/04 11:21:00;;;;;;;7.05;0.90;;;6.30;99.90;;;;;;5028121;28;20057;-71
2022/01/04 11:23:33;;;;;;;10.38;1.00;;;6.40;99.90;;;;;;5010067;28;251941;-70
2022/01/04 11:26:02;;;;;;;10.55;1.00;;;6.40;99.90;;;;;;5024805;28;20427;-69
2022/01/04 11:28:28;;;;;;;6.32;1.10;;;6.40;99.90;;;;;;5008562;28;275999;-70
2022/01/04 11:31:23;;;;;;;8.57;0.90;;;6.40;99.90;;;;;;5008883;28;20053;-70
2022/01/04 11:34:10;;;;;;;7.65;1.20;;;6.40;99.90;;;;;;5007923;28;98671;-70
2022/01/04 11:36:52;;;;;;;8.32;0.90;;;6.40;99.90;;;;;;5008438;28;20068;-70
2022/01/04 11:39:38;;;;;;;10.57;1.30;;;6.30;99.90;;;;;;4993931;28;76754;-70
2022/01/04 11:42:10;;;;;;;6.47;0.90;;;6.30;99.90;;;;;;5005342;28;261070;-70
2022/01/04 11:44:47;;;;;;;6.40;0.90;;;6.30;99.90;;;;;;5001552;28;20057;-70
2022/01/04 11:47:26;;;;;;;9.07;1.27;;;6.30;99.90;;;;;;5006759;28;272572;-70
2022/01/04 11:50:07;;;;;;;7.38;1.17;;;6.40;99.90;;;;;;5008055;28;20144;-71
2022/01/04 11:52:39;;;;;;;7.97;0.98;;;6.30;99.90;;;;;;5008931;28;252987;-71
2022/01/04 11:55:30;;;;;;;8.98;1.13;;;6.10;99.90;;;;;;5015792;28;20141;-71
2022/01/04 11:57:58;;;;;;;12.85;1.27;;;5.90;99.90;;;;;;4997905;28;271493;-71
2022/01/04 12:00:34;;;;;;;9.77;1.10;;;5.80;99.90;;;;;;5031371;28;20064;-71
2022/01/04 12:03:04;;;;;;;6.97;1.10;;;5.70;99.90;;;;;;4996231;28;253333;-71
2022/01/04 12:05:30;;;;;;;8.57;1.17;;;5.70;99.90;;;;;;5019786;28;20068;-72
2022/01/04 12:08:03;;;;;;;10.52;0.90;;;5.70;99.90;;;;;;5007632;28;20444;-72
2022/01/04 12:10:30;;;;;;;11.35;1.13;;;5.70;99.90;;;;;;5004059;28;20056;-71
2022/01/04 12:12:59;;;;;;;8.65;1.10;;;5.70;99.90;;;;;;4984227;28;251766;-71
2022/01/04 12:15:34;;;;;;;9.23;1.10;;;5.80;99.90;;;;;;4998940;28;20050;-71
2022/01/04 12:18:05;;;;;;;7.85;0.90;;;5.80;99.90;;;;;;4993111;28;136635;-71
2022/01/04 12:20:43;;;;;;;8.73;1.25;;;5.90;99.90;;;;;;5012917;28;20061;-71
2022/01/04 12:23:31;;;;;;;7.60;1.20;;;6.00;99.90;;;;;;5000621;28;272896;-71
2022/01/04 12:26:06;;;;;;;8.68;0.90;;;6.10;99.90;;;;;;5019524;28;20045;-71
2022/01/04 12:28:43;;;;;;;9.32;1.20;;;6.10;99.90;;;;;;5004489;28;272613;-71
2022/01/04 12:31:19;;;;;;;5.63;0.73;;;6.10;99.90;;;;;;5021712;28;20056;-71
2022/01/04 12:33:49;;;;;;;12.98;1.30;;;6.20;99.90;;;;;;4990286;28;197971;-70
2022/01/04 12:36:34;;;;;;;13.95;1.60;;;6.30;99.90;;;;;;5018899;28;20041;-71
2022/01/04 12:39:10;;;;;;;12.10;1.20;;;6.30;99.90;;;;;;5006473;28;110754;-71
2022/01/04 12:41:38;;;;;;;9.98;1.25;;;6.30;99.90;;;;;;5025394;28;20064;-70
2022/01/04 12:44:06;;;;;;;9.25;1.00;;;6.30;99.90;;;;;;5014868;28;237827;-71
2022/01/04 12:46:41;;;;;;;6.60;0.90;;;6.30;99.90;;;;;;5005571;28;20435;-71
2022/01/04 12:49:09;;;;;;;7.78;0.90;;;6.30;99.90;;;;;;5004758;28;261725;-71
2022/01/04 12:51:47;;;;;;;7.70;1.08;;;6.20;99.90;;;;;;4998381;28;20049;-71
2022/01/04 12:54:22;;;;;;;9.40;1.10;;;6.10;99.90;;;;;;4993780;28;170518;-71
2022/01/04 12:56:51;;;;;;;9.05;1.55;;;6.10;99.90;;;;;;5018889;28;20072;-71